Time,TemperatureF,DewpointF,PressureIn,WindDirection,WindDirectionDegrees,WindSpeedMPH,WindSpeedGustMPH,Humidity,HourlyPrecipIn,Conditions,Clouds,dailyrainin,SoftwareType,DateUTC
2013-03-06 00:00:00,27.2,22.0,29.78,North,5,8.0,-999.0,80,-99.99,,,0.00,weatherlink.com 1.10,2013-03-06 05:00:00,
2013-03-06 00:15:00,27.2,22.0,29.78,NNE,15,11.0,-999.0,79,-99.99,,,0.00,weatherlink.com 1.10,2013-03-06 05:15:00,
2013-03-06 00:30:00,27.0,21.0,29.78,North,9,5.0,-999.0,79,-99.99,,,0.00,weatherlink.com 1.10,2013-03-06 05:30:00,
2013-03-06 00:45:00,26.9,22.0,29.78,NE,42,9.0,-999.0,80,-99.99,,,0.00,weatherlink.com 1.10,2013-03-06 05:45:00,
2013-03-06 01:00:00,26.7,21.0,29.78,North,5,11.0,-999.0,80,-99.99,,,0.00,weatherlink.com 1.10,2013-03-06 06:00:00,
2013-03-06 01:15:00,26.6,21.0,29.78,North,360,16.0,-999.0,80,-99.99,,,0.00,weatherlink.com 1.10,2013-03-06 06:15:00,
2013-03-06 01:30:00,26.4,21.0,29.78,North,5,14.0,-999.0,81,-99.99,,,0.00,weatherlink.com 1.10,2013-03-06 06:30:00,
2013-03-06 01:45:00,26.1,21.0,29.79,NNE,28,9.0,-999.0,81,-99.99,,,0.00,weatherlink.com 1.10,2013-03-06 06:45:00,
2013-03-06 02:00:00,26.1,21.0,29.79,NNE,22,12.0,-999.0,81,-99.99,,,0.00,weatherlink.com 1.10,2013-03-06 07:00:00,
2013-03-06 02:15:00,26.0,21.0,29.80,NNE,17,10.0,-999.0,81,-99.99,,,0.00,weatherlink.com 1.10,2013-03-06 07:15:00,
2013-03-06 02:30:00,25.8,21.0,29.80,NNE,15,8.0,-999.0,82,-99.99,,,0.00,weatherlink.com 1.10,2013-03-06 07:30:00,
2013-03-06 02:45:00,25.8,21.0,29.81,North,9,6.0,-999.0,82,-99.99,,,0.00,weatherlink.com 1.10,2013-03-06 07:45:00,
2013-03-06 03:00:00,25.7,21.0,29.81,North,10,4.0,-999.0,83,-99.99,,,0.00,weatherlink.com 1.10,2013-03-06 08:00:00,
2013-03-06 03:15:00,25.7,21.0,29.81,North,355,11.0,-999.0,83,-99.99,,,0.00,weatherlink.com 1.10,2013-03-06 08:15:00,
2013-03-06 03:30:00,26.0,22.0,29.81,North,5,12.0,-999.0,84,-99.99,,,0.00,weatherlink.com 1.10,2013-03-06 08:30:00,
2013-03-06 03:45:00,26.1,22.0,29.82,North,355,12.0,-999.0,84,-99.99,,,0.00,weatherlink.com 1.10,2013-03-06 08:45:00,
2013-03-06 04:00:00,26.3,22.0,29.82,North,355,11.0,-999.0,84,-99.99,,,0.00,weatherlink.com 1.10,2013-03-06 09:00:00,
2013-03-06 04:15:00,26.4,22.0,29.82,North,9,10.0,-999.0,83,-99.99,,,0.00,weatherlink.com 1.10,2013-03-06 09:15:00,
2013-03-06 04:30:00,26.4,22.0,29.83,NNE,12,12.0,-999.0,84,-99.99,,,0.00,weatherlink.com 1.10,2013-03-06 09:30:00,
2013-03-06 04:45:00,26.4,22.0,29.84,NNE,14,11.0,-999.0,83,-99.99,,,0.00,weatherlink.com 1.10,2013-03-06 09:45:00,
2013-03-06 05:00:00,26.4,22.0,29.85,North,5,10.0,-999.0,83,-99.99,,,0.00,weatherlink.com 1.10,2013-03-06 10:00:00,
2013-03-06 05:15:00,26.3,22.0,29.86,North,355,7.0,-999.0,83,-99.99,,,0.00,weatherlink.com 1.10,2013-03-06 10:15:00,
2013-03-06 05:30:00,25.8,22.0,29.87,North,350,5.0,-999.0,84,-99.99,,,0.00,weatherlink.com 1.10,2013-03-06 10:30:00,
2013-03-06 05:46:00,25.8,22.0,29.88,North,350,5.0,-999.0,84,-99.99,,,0.00,weatherlink.com 1.10,2013-03-06 10:46:00,
2013-03-06 06:01:00,26.1,22.0,29.88,North,355,7.0,-999.0,84,-99.99,,,0.00,weatherlink.com 1.10,2013-03-06 11:01:00,
2013-03-06 06:16:00,26.1,22.0,29.90,North,355,6.0,-999.0,84,-99.99,,,0.00,weatherlink.com 1.10,2013-03-06 11:16:00,
2013-03-06 06:31:00,26.1,22.0,29.90,North,355,9.0,-999.0,84,-99.99,,,0.00,weatherlink.com 1.10,2013-03-06 11:31:00,
2013-03-06 06:46:00,26.3,22.0,29.92,North,355,7.0,-999.0,84,-99.99,,,0.00,weatherlink.com 1.10,2013-03-06 11:46:00,
2013-03-06 07:01:00,26.4,22.0,29.93,North,355,9.0,-999.0,84,-99.99,,,0.00,weatherlink.com 1.10,2013-03-06 12:01:00,
2013-03-06 07:16:00,26.3,22.0,29.94,North,5,5.0,-999.0,84,-99.99,,,0.00,weatherlink.com 1.10,2013-03-06 12:16:00,
2013-03-06 07:31:00,26.4,22.0,29.95,NNW,346,6.0,-999.0,84,-99.99,,,0.00,weatherlink.com 1.10,2013-03-06 12:31:00,
2013-03-06 07:46:00,26.7,23.0,29.96,NNW,348,5.0,-999.0,84,-99.99,,,0.00,weatherlink.com 1.10,2013-03-06 12:46:00,
2013-03-06 08:01:00,27.0,23.0,29.96,NNW,334,6.0,-999.0,84,-99.99,,,0.00,weatherlink.com 1.10,2013-03-06 13:01:00,
2013-03-06 08:16:00,27.9,23.0,29.98,North,5,10.0,-999.0,83,-99.99,,,0.00,weatherlink.com 1.10,2013-03-06 13:16:00,
2013-03-06 08:31:00,29.0,24.0,29.98,NNW,342,6.0,-999.0,82,-99.99,,,0.00,weatherlink.com 1.10,2013-03-06 13:31:00,
2013-03-06 08:46:00,29.4,25.0,29.99,NNW,345,10.0,-999.0,82,-99.99,,,0.00,weatherlink.com 1.10,2013-03-06 13:46:00,
2013-03-06 09:01:00,30.6,25.0,30.00,North,360,6.0,-999.0,80,-99.99,,,0.00,weatherlink.com 1.10,2013-03-06 14:01:00,
2013-03-06 09:16:00,31.2,25.0,30.00,North,5,9.0,-999.0,78,-99.99,,,0.00,weatherlink.com 1.10,2013-03-06 14:16:00,
2013-03-06 09:31:00,32.2,26.0,30.01,NNE,26,5.0,-999.0,77,-99.99,,,0.00,weatherlink.com 1.10,2013-03-06 14:31:00,
2013-03-06 09:46:00,32.5,26.0,30.02,North,355,6.0,-999.0,77,-99.99,,,0.00,weatherlink.com 1.10,2013-03-06 14:46:00,
2013-03-06 10:01:00,33.4,26.0,30.02,NE,40,5.0,-999.0,75,-99.99,,,0.00,weatherlink.com 1.10,2013-03-06 15:01:00,
2013-03-06 10:16:00,33.5,26.0,30.03,North,9,4.0,-999.0,75,-99.99,,,0.00,weatherlink.com 1.10,2013-03-06 15:16:00,
2013-03-06 10:31:00,34.4,27.0,30.03,NE,36,2.0,-999.0,74,-99.99,,,0.00,weatherlink.com 1.10,2013-03-06 15:31:00,
2013-03-06 10:46:00,35.0,26.0,30.04,North,355,9.0,-999.0,71,-99.99,,,0.00,weatherlink.com 1.10,2013-03-06 15:46:00,
2013-03-06 11:01:00,35.5,27.0,30.04,East,79,0.0,-999.0,71,-99.99,,,0.00,weatherlink.com 1.10,2013-03-06 16:01:00,
2013-03-06 11:16:00,35.5,27.0,30.04,NE,52,5.0,-999.0,71,-99.99,,,0.00,weatherlink.com 1.10,2013-03-06 16:16:00,
2013-03-06 11:31:00,36.0,27.0,30.05,ENE,78,1.0,-999.0,70,-99.99,,,0.00,weatherlink.com 1.10,2013-03-06 16:31:00,
2013-03-06 11:46:00,36.6,27.0,30.05,North,360,4.0,-999.0,68,-99.99,,,0.00,weatherlink.com 1.10,2013-03-06 16:46:00,
2013-03-06 12:01:00,36.6,27.0,30.05,North,351,0.0,-999.0,68,-99.99,,,0.00,weatherlink.com 1.10,2013-03-06 17:01:00,
2013-03-06 12:16:00,37.0,27.0,30.05,NW,309,5.0,-999.0,68,-99.99,,,0.00,weatherlink.com 1.10,2013-03-06 17:16:00,
2013-03-06 12:31:00,37.0,28.0,30.06,North,360,5.0,-999.0,69,-99.99,,,0.00,weatherlink.com 1.10,2013-03-06 17:31:00,
2013-03-06 12:46:00,37.2,29.0,30.07,WNW,290,4.0,-999.0,71,-99.99,,,0.00,weatherlink.com 1.10,2013-03-06 17:46:00,
2013-03-06 13:01:00,37.5,29.0,30.08,NNW,328,1.0,-999.0,70,-99.99,,,0.00,weatherlink.com 1.10,2013-03-06 18:01:00,
2013-03-06 13:16:00,37.5,29.0,30.08,NNW,336,0.0,-999.0,70,-99.99,,,0.00,weatherlink.com 1.10,2013-03-06 18:16:00,
2013-03-06 13:31:00,37.5,29.0,30.08,NNW,346,2.0,-999.0,70,-99.99,,,0.00,weatherlink.com 1.10,2013-03-06 18:31:00,
2013-03-06 13:46:00,37.6,29.0,30.07,North,350,5.0,-999.0,70,-99.99,,,0.00,weatherlink.com 1.10,2013-03-06 18:46:00,
2013-03-06 14:01:00,37.5,29.0,30.07,WNW,296,4.0,-999.0,70,-99.99,,,0.00,weatherlink.com 1.10,2013-03-06 19:01:00,
2013-03-06 14:16:00,38.0,28.0,30.07,North,5,6.0,-999.0,68,-99.99,,,0.00,weatherlink.com 1.10,2013-03-06 19:16:00,
2013-03-06 14:31:00,38.0,28.0,30.07,NNW,329,2.0,-999.0,68,-99.99,,,0.00,weatherlink.com 1.10,2013-03-06 19:31:00,
2013-03-06 14:46:00,38.2,29.0,30.07,NW,317,2.0,-999.0,69,-99.99,,,0.00,weatherlink.com 1.10,2013-03-06 19:46:00,
2013-03-06 15:01:00,38.0,29.0,30.07,NW,312,2.0,-999.0,70,-99.99,,,0.00,weatherlink.com 1.10,2013-03-06 20:01:00,
2013-03-06 15:16:00,37.8,29.0,30.08,North,351,7.0,-999.0,70,-99.99,,,0.00,weatherlink.com 1.10,2013-03-06 20:16:00,
2013-03-06 15:31:00,36.3,28.0,30.08,NNW,344,4.0,-999.0,73,-99.99,,,0.00,weatherlink.com 1.10,2013-03-06 20:31:00,
2013-03-06 15:46:00,36.3,28.0,30.08,NNW,341,4.0,-999.0,73,-99.99,,,0.00,weatherlink.com 1.10,2013-03-06 20:46:00,
2013-03-06 16:01:00,36.5,29.0,30.08,NNW,342,2.0,-999.0,73,-99.99,,,0.00,weatherlink.com 1.10,2013-03-06 21:01:00,
2013-03-06 16:16:00,36.5,29.0,30.09,NNW,345,4.0,-999.0,73,-99.99,,,0.00,weatherlink.com 1.10,2013-03-06 21:16:00,
2013-03-06 16:31:00,36.5,29.0,30.10,NNW,333,6.0,-999.0,73,-99.99,,,0.00,weatherlink.com 1.10,2013-03-06 21:31:00,
2013-03-06 16:46:00,36.2,28.0,30.10,NNW,329,5.0,-999.0,73,-99.99,,,0.00,weatherlink.com 1.10,2013-03-06 21:46:00,
2013-03-06 17:01:00,35.8,28.0,30.10,WNW,292,1.0,-999.0,73,-99.99,,,0.00,weatherlink.com 1.10,2013-03-06 22:01:00,
2013-03-06 17:16:00,35.3,27.0,30.11,WNW,296,4.0,-999.0,73,-99.99,,,0.00,weatherlink.com 1.10,2013-03-06 22:16:00,
2013-03-06 17:31:00,35.0,27.0,30.12,WNW,303,5.0,-999.0,73,-99.99,,,0.00,weatherlink.com 1.10,2013-03-06 22:31:00,
2013-03-06 17:46:00,34.7,27.0,30.12,NNW,331,2.0,-999.0,74,-99.99,,,0.00,weatherlink.com 1.10,2013-03-06 22:46:00,
2013-03-06 18:01:00,34.4,27.0,30.13,NW,308,1.0,-999.0,74,-99.99,,,0.00,weatherlink.com 1.10,2013-03-06 23:01:00,
2013-03-06 18:16:00,34.1,27.0,30.13,NW,323,4.0,-999.0,75,-99.99,,,0.00,weatherlink.com 1.10,2013-03-06 23:16:00,
2013-03-06 18:31:00,34.0,27.0,30.13,NNW,329,0.0,-999.0,75,-99.99,,,0.00,weatherlink.com 1.10,2013-03-06 23:31:00,
2013-03-06 18:46:00,33.7,27.0,30.14,NW,323,2.0,-999.0,76,-99.99,,,0.00,weatherlink.com 1.10,2013-03-06 23:46:00,
2013-03-06 19:01:00,33.5,27.0,30.14,NW,324,2.0,-999.0,77,-99.99,,,0.00,weatherlink.com 1.10,2013-03-07 00:01:00,
2013-03-06 19:16:00,33.5,27.0,30.15,NW,313,1.0,-999.0,77,-99.99,,,0.00,weatherlink.com 1.10,2013-03-07 00:16:00,
2013-03-06 19:31:00,33.1,27.0,30.15,WNW,303,0.0,-999.0,78,-99.99,,,0.00,weatherlink.com 1.10,2013-03-07 00:31:00,
2013-03-06 19:46:00,33.1,27.0,30.15,NNW,329,0.0,-999.0,78,-99.99,,,0.00,weatherlink.com 1.10,2013-03-07 00:46:00,
2013-03-06 20:01:00,33.1,27.0,30.15,NNW,330,1.0,-999.0,78,-99.99,,,0.00,weatherlink.com 1.10,2013-03-07 01:01:00,
2013-03-06 20:16:00,32.9,27.0,30.16,NNW,342,0.0,-999.0,79,-99.99,,,0.00,weatherlink.com 1.10,2013-03-07 01:16:00,
2013-03-06 20:31:00,32.9,27.0,30.16,NNW,339,2.0,-999.0,79,-99.99,,,0.00,weatherlink.com 1.10,2013-03-07 01:31:00,
2013-03-06 20:46:00,32.9,27.0,30.15,NW,324,0.0,-999.0,79,-99.99,,,0.00,weatherlink.com 1.10,2013-03-07 01:46:00,
2013-03-06 21:01:00,32.8,27.0,30.16,NW,324,0.0,-999.0,79,-99.99,,,0.00,weatherlink.com 1.10,2013-03-07 02:01:00,
2013-03-06 21:16:00,32.7,27.0,30.16,NW,324,0.0,-999.0,80,-99.99,,,0.00,weatherlink.com 1.10,2013-03-07 02:16:00,
2013-03-06 21:31:00,32.7,27.0,30.16,NW,324,0.0,-999.0,80,-99.99,,,0.00,weatherlink.com 1.10,2013-03-07 02:31:00,
2013-03-06 21:46:00,32.7,27.0,30.16,NW,324,0.0,-999.0,80,-99.99,,,0.00,weatherlink.com 1.10,2013-03-07 02:46:00,
2013-03-06 22:01:00,32.5,27.0,30.16,NW,324,0.0,-999.0,80,-99.99,,,0.00,weatherlink.com 1.10,2013-03-07 03:01:00,
2013-03-06 22:16:00,32.4,27.0,30.16,NW,324,0.0,-999.0,81,-99.99,,,0.00,weatherlink.com 1.10,2013-03-07 03:16:00,
2013-03-06 22:31:00,32.2,27.0,30.16,NW,324,0.0,-999.0,81,-99.99,,,0.00,weatherlink.com 1.10,2013-03-07 03:31:00,
2013-03-06 22:46:00,32.2,27.0,30.16,NW,324,0.0,-999.0,81,-99.99,,,0.00,weatherlink.com 1.10,2013-03-07 03:46:00,
2013-03-06 23:01:00,32.2,27.0,30.16,NW,324,0.0,-999.0,81,-99.99,,,0.00,weatherlink.com 1.10,2013-03-07 04:01:00,
2013-03-06 23:16:00,32.2,27.0,30.16,NW,324,0.0,-999.0,82,-99.99,,,0.00,weatherlink.com 1.10,2013-03-07 04:16:00,
2013-03-06 23:31:00,32.1,27.0,30.16,NW,324,0.0,-999.0,82,-99.99,,,0.00,weatherlink.com 1.10,2013-03-07 04:31:00,
2013-03-06 23:46:00,31.9,27.0,30.16,NW,324,0.0,-999.0,83,-99.99,,,0.00,weatherlink.com 1.10,2013-03-07 04:46:00,